createdAt,value
2022-10-14T00:02:37.206Z,10.20
2022-10-14T00:07:39.198Z,10.13
2022-10-14T00:12:40.825Z,10.30
2022-10-14T00:17:42.442Z,11.52
2022-10-14T00:22:44.054Z,11.73
2022-10-14T00:27:45.661Z,11.68
2022-10-14T00:32:47.375Z,12.38
2022-10-14T00:37:48.982Z,13.20
2022-10-14T00:42:50.637Z,11.77
2022-10-14T00:47:53.638Z,12.98
2022-10-14T00:52:56.090Z,14.20
2022-10-14T00:57:57.850Z,12.70
2022-10-14T01:02:59.484Z,13.70
2022-10-14T01:08:17.218Z,13.23
2022-10-14T01:13:29.202Z,13.15
2022-10-14T01:19:06.670Z,13.35
2022-10-14T01:24:44.025Z,12.73
2022-10-14T01:30:01.491Z,12.48
2022-10-14T01:35:37.006Z,13.02
2022-10-14T01:40:44.865Z,13.65
2022-10-14T01:45:49.012Z,14.43
2022-10-14T01:50:52.386Z,15.40
2022-10-14T01:55:57.278Z,15.10
2022-10-14T02:00:58.899Z,16.20
2022-10-14T02:06:03.546Z,15.93
2022-10-14T02:11:17.270Z,16.00
2022-10-14T02:16:38.674Z,15.90
2022-10-14T02:21:47.504Z,15.80
2022-10-14T02:26:52.138Z,15.82
2022-10-14T02:31:55.066Z,15.88
2022-10-14T02:36:57.690Z,15.43
2022-10-14T02:41:59.416Z,16.95
2022-10-14T02:47:01.190Z,16.77
2022-10-14T02:52:04.802Z,16.25
2022-10-14T02:57:06.676Z,15.35
2022-10-14T03:02:08.753Z,16.83
2022-10-14T03:07:14.224Z,15.63
2022-10-14T03:12:20.816Z,16.88
2022-10-14T03:17:23.984Z,16.50
2022-10-14T03:22:26.960Z,15.38
2022-10-14T03:27:30.259Z,17.73
2022-10-14T03:32:37.015Z,16.67
2022-10-14T03:38:17.234Z,17.65
2022-10-14T03:43:19.958Z,16.65
2022-10-14T03:48:30.264Z,17.50
2022-10-14T03:53:32.772Z,16.23
2022-10-14T03:58:34.513Z,17.23
2022-10-14T04:03:41.853Z,16.80
2022-10-14T04:08:44.035Z,17.17
2022-10-14T04:19:05.665Z,16.73
2022-10-14T04:24:08.781Z,16.33
2022-10-14T04:29:24.149Z,17.17
2022-10-14T04:34:36.408Z,16.33
2022-10-14T04:39:39.686Z,17.00
2022-10-14T04:44:41.750Z,17.77
2022-10-14T04:49:45.610Z,17.85
2022-10-14T04:54:53.902Z,18.48
2022-10-14T05:00:07.913Z,18.70
2022-10-14T05:05:29.797Z,19.80
2022-10-14T05:10:33.822Z,17.92
2022-10-14T05:15:37.491Z,19.33
2022-10-14T05:20:46.450Z,19.52
2022-10-14T05:25:48.217Z,19.48
2022-10-14T05:30:51.165Z,18.88
2022-10-14T05:35:59.002Z,18.85
2022-10-14T05:41:04.310Z,17.90
2022-10-14T05:46:07.205Z,19.40
2022-10-14T05:51:15.338Z,18.85
2022-10-14T05:56:17.181Z,18.35
2022-10-14T06:01:18.928Z,18.45
2022-10-14T06:06:23.256Z,19.65
2022-10-14T06:11:28.359Z,19.17
2022-10-14T06:16:30.725Z,20.10
2022-10-14T06:21:32.579Z,19.65
2022-10-14T06:26:34.283Z,19.50
2022-10-14T06:31:35.870Z,18.77
2022-10-14T06:36:37.807Z,19.73
2022-10-14T06:41:39.452Z,19.52
2022-10-14T06:46:43.500Z,19.25
2022-10-14T06:51:45.336Z,18.60
2022-10-14T06:56:46.940Z,19.20
2022-10-14T07:01:48.782Z,19.25
2022-10-14T07:06:51.747Z,20.88
2022-10-14T07:11:53.358Z,20.30
2022-10-14T07:16:54.987Z,21.10
2022-10-14T07:21:56.621Z,19.45
2022-10-14T07:26:58.423Z,21.27
2022-10-14T07:32:00.142Z,20.27
2022-10-14T07:37:01.818Z,20.83
2022-10-14T07:42:03.988Z,19.35
2022-10-14T07:47:06.849Z,20.48
2022-10-14T07:52:08.763Z,20.02
2022-10-14T07:57:10.536Z,18.42
2022-10-14T08:02:12.911Z,18.90
2022-10-14T08:07:14.703Z,20.05
2022-10-14T08:12:16.462Z,18.17
2022-10-14T08:17:18.171Z,19.00
2022-10-14T08:22:20.223Z,14.88
2022-10-14T08:27:22.132Z,13.05
2022-10-14T08:32:24.290Z,10.75
2022-10-14T08:37:26.329Z,12.27
2022-10-14T08:42:54.383Z,11.38
2022-10-14T08:47:58.705Z,12.55
2022-10-14T08:53:13.421Z,13.07
2022-10-14T08:58:41.209Z,13.23
2022-10-14T09:03:43.114Z,11.95
2022-10-14T09:08:47.305Z,12.20
2022-10-14T09:13:59.542Z,10.65
2022-10-14T09:19:05.137Z,11.45
2022-10-14T09:24:15.150Z,11.25
2022-10-14T09:29:28.030Z,10.27
2022-10-14T09:34:33.524Z,8.88
2022-10-14T09:39:40.371Z,7.47
2022-10-14T09:44:43.098Z,7.40
2022-10-14T09:49:46.904Z,6.03
2022-10-14T09:54:58.514Z,6.38
2022-10-14T10:00:03.564Z,5.07
2022-10-14T10:05:27.120Z,3.87
2022-10-14T10:10:30.715Z,4.13
2022-10-14T10:15:32.370Z,4.60
2022-10-14T10:20:35.366Z,3.55
2022-10-14T10:25:37.030Z,4.28
2022-10-14T10:30:47.866Z,4.32
2022-10-14T10:35:52.603Z,3.28
2022-10-14T10:41:00.122Z,3.53
2022-10-14T10:46:24.117Z,3.63
2022-10-14T10:51:43.894Z,2.97
2022-10-14T10:56:52.592Z,2.80
2022-10-14T11:02:33.197Z,2.95
2022-10-14T11:08:16.346Z,2.90
2022-10-14T11:13:32.412Z,2.60
2022-10-14T11:19:14.618Z,2.72
2022-10-14T11:24:19.723Z,2.10
2022-10-14T11:30:01.278Z,2.40
2022-10-14T11:35:40.433Z,1.67
2022-10-14T11:41:01.277Z,2.17
2022-10-14T11:46:08.932Z,1.65
2022-10-14T11:51:42.883Z,1.42
2022-10-14T11:56:50.990Z,1.60
2022-10-14T12:01:59.604Z,1.20
2022-10-14T12:07:08.845Z,1.38
2022-10-14T12:12:15.314Z,1.23
2022-10-14T12:17:28.668Z,1.17
2022-10-14T12:22:31.824Z,1.40
2022-10-14T12:27:34.178Z,1.30
2022-10-14T12:33:02.908Z,1.17
2022-10-14T12:38:04.975Z,1.02
2022-10-14T12:43:18.018Z,1.20
2022-10-14T12:48:25.696Z,1.00
2022-10-14T12:53:30.751Z,0.90
2022-10-14T12:58:40.948Z,0.70
2022-10-14T13:03:45.515Z,0.80
2022-10-14T13:09:12.152Z,0.90
2022-10-14T13:14:20.920Z,0.90
2022-10-14T13:19:34.660Z,0.88
2022-10-14T13:24:41.608Z,0.80
2022-10-14T13:35:18.399Z,0.90
2022-10-14T13:40:27.245Z,0.73
2022-10-14T13:45:38.332Z,1.52
2022-10-14T13:50:44.386Z,2.40
2022-10-14T13:55:54.907Z,1.13
2022-10-14T14:00:59.694Z,1.10
2022-10-14T14:06:03.775Z,1.10
2022-10-14T14:11:22.292Z,0.90
2022-10-14T14:16:37.664Z,0.95
2022-10-14T14:21:39.491Z,1.20
2022-10-14T14:26:41.391Z,1.30
2022-10-14T14:32:06.829Z,1.75
2022-10-14T14:42:40.662Z,1.45
2022-10-14T14:47:42.865Z,1.38
2022-10-14T14:52:46.920Z,1.45
2022-10-14T14:57:59.745Z,1.52
2022-10-14T15:03:03.449Z,1.88
2022-10-14T15:08:05.292Z,1.50
2022-10-14T15:13:45.133Z,2.70
2022-10-14T15:18:46.947Z,1.88
2022-10-14T15:23:48.564Z,2.28
2022-10-14T15:29:08.576Z,2.10
2022-10-14T15:34:30.725Z,2.10
2022-10-14T15:39:35.063Z,2.50
2022-10-14T15:44:36.810Z,2.67
2022-10-14T15:49:41.978Z,2.47
2022-10-14T15:54:45.926Z,3.28
2022-10-14T15:59:49.346Z,3.47
2022-10-14T16:05:18.171Z,3.10
2022-10-14T16:10:15.506Z,3.88
2022-10-14T16:15:30.226Z,3.83
2022-10-14T16:20:32.893Z,3.70
2022-10-14T16:25:35.076Z,4.30
2022-10-14T16:30:39.300Z,4.63
2022-10-14T16:35:42.308Z,4.25
2022-10-14T16:40:44.061Z,4.45
2022-10-14T16:45:48.051Z,4.50
2022-10-14T16:50:51.096Z,5.50
2022-10-14T16:55:55.950Z,5.50
2022-10-14T17:00:57.589Z,6.32
2022-10-14T17:05:59.260Z,5.90
2022-10-14T17:11:00.992Z,5.90
2022-10-14T17:16:04.616Z,5.55
2022-10-14T17:21:08.876Z,5.50
2022-10-14T17:26:16.198Z,5.32
2022-10-14T17:31:20.501Z,5.35
2022-10-14T17:36:30.947Z,5.53
2022-10-14T17:41:33.026Z,5.22
2022-10-14T17:46:35.033Z,5.13
2022-10-14T17:51:37.830Z,5.10
2022-10-14T17:56:40.215Z,5.30
2022-10-14T18:07:03.596Z,5.53
2022-10-14T18:12:09.910Z,5.55
2022-10-14T18:17:12.726Z,5.40
2022-10-14T18:22:15.862Z,5.20
2022-10-14T18:27:17.617Z,5.65
2022-10-14T18:32:19.468Z,5.22
2022-10-14T18:37:21.117Z,6.00
2022-10-14T18:42:23.305Z,5.47
2022-10-14T18:47:25.325Z,5.28
2022-10-14T18:52:26.935Z,5.65
2022-10-14T18:57:29.215Z,5.30
2022-10-14T19:02:31.772Z,6.70
2022-10-14T19:07:33.469Z,5.72
2022-10-14T19:12:41.197Z,5.90
2022-10-14T19:17:43.529Z,6.13
2022-10-14T19:22:45.312Z,5.97
2022-10-14T19:27:47.054Z,6.30
2022-10-14T19:32:48.724Z,6.43
2022-10-14T19:37:50.414Z,7.03
2022-10-14T19:42:52.141Z,6.40
2022-10-14T19:47:53.789Z,6.22
2022-10-14T19:52:55.522Z,6.00
2022-10-14T19:57:57.796Z,6.03
2022-10-14T20:02:59.516Z,5.55
2022-10-14T20:08:02.542Z,5.97
2022-10-14T20:13:04.325Z,6.13
2022-10-14T20:18:06.093Z,5.68
2022-10-14T20:23:07.787Z,5.53
2022-10-14T20:28:09.479Z,4.85
2022-10-14T20:33:11.185Z,6.13
2022-10-14T20:38:12.859Z,6.05
2022-10-14T20:43:15.686Z,5.93
2022-10-14T20:48:17.420Z,5.72
2022-10-14T20:53:19.128Z,5.80
2022-10-14T20:58:20.924Z,5.82
2022-10-14T21:03:22.588Z,5.57
2022-10-14T21:08:24.293Z,6.15
2022-10-14T21:13:26.432Z,5.85
2022-10-14T21:18:29.230Z,5.68
2022-10-14T21:23:30.953Z,5.93
2022-10-14T21:28:32.661Z,6.85
2022-10-14T21:33:34.940Z,6.57
2022-10-14T21:38:37.075Z,5.85
2022-10-14T21:43:39.792Z,6.60
2022-10-14T21:48:42.732Z,7.20
2022-10-14T21:53:45.868Z,6.05
2022-10-14T21:58:47.555Z,7.53
2022-10-14T22:03:57.564Z,7.25
2022-10-14T22:09:01.184Z,7.43
2022-10-14T22:14:05.658Z,8.40
2022-10-14T22:19:07.696Z,8.80
2022-10-14T22:24:09.727Z,8.52
2022-10-14T22:29:16.012Z,9.57
2022-10-14T22:34:18.138Z,9.30
2022-10-14T22:39:19.790Z,9.88
2022-10-14T22:44:21.438Z,10.77
2022-10-14T22:49:23.186Z,10.70
2022-10-14T22:54:24.914Z,10.30
2022-10-14T22:59:26.869Z,10.82
2022-10-14T23:04:28.574Z,10.93
2022-10-14T23:09:30.503Z,11.38
2022-10-14T23:14:32.344Z,11.20
2022-10-14T23:19:34.001Z,11.07
2022-10-14T23:24:35.738Z,11.30
2022-10-14T23:29:37.520Z,11.43
2022-10-14T23:34:39.213Z,12.73
2022-10-14T23:39:40.971Z,12.40
2022-10-14T23:44:42.678Z,12.40
2022-10-14T23:49:44.328Z,12.55
2022-10-14T23:54:46.104Z,12.60
2022-10-14T23:59:47.897Z,11.73
